sensor_id;sensor_type;location;lat;lon;timestamp;P1;durP1;ratioP1;P2;durP2;ratioP2
16824;SDS011;8529;48.108;-1.706;2024-03-08T00:00:26;13.57;;;6.43;;
16824;SDS011;8529;48.108;-1.706;2024-03-08T00:02:53;11.80;;;6.95;;
16824;SDS011;8529;48.108;-1.706;2024-03-08T00:05:20;13.10;;;6.80;;
16824;SDS011;8529;48.108;-1.706;2024-03-08T00:07:48;12.30;;;6.60;;
16824;SDS011;8529;48.108;-1.706;2024-03-08T00:10:15;9.85;;;6.50;;
16824;SDS011;8529;48.108;-1.706;2024-03-08T00:12:43;9.50;;;6.32;;
16824;SDS011;8529;48.108;-1.706;2024-03-08T00:15:13;11.93;;;6.28;;
16824;SDS011;8529;48.108;-1.706;2024-03-08T00:17:41;12.98;;;6.88;;
16824;SDS011;8529;48.108;-1.706;2024-03-08T00:20:08;10.30;;;6.50;;
16824;SDS011;8529;48.108;-1.706;2024-03-08T00:22:36;10.98;;;6.80;;
16824;SDS011;8529;48.108;-1.706;2024-03-08T00:25:04;8.52;;;6.03;;
16824;SDS011;8529;48.108;-1.706;2024-03-08T00:27:32;11.55;;;6.72;;
16824;SDS011;8529;48.108;-1.706;2024-03-08T00:29:58;9.88;;;6.20;;
16824;SDS011;8529;48.108;-1.706;2024-03-08T00:32:27;10.85;;;6.20;;
16824;SDS011;8529;48.108;-1.706;2024-03-08T00:34:54;10.82;;;6.25;;
16824;SDS011;8529;48.108;-1.706;2024-03-08T00:37:21;10.05;;;5.80;;
16824;SDS011;8529;48.108;-1.706;2024-03-08T00:39:48;11.88;;;6.43;;
16824;SDS011;8529;48.108;-1.706;2024-03-08T00:42:15;12.48;;;6.95;;
16824;SDS011;8529;48.108;-1.706;2024-03-08T00:44:42;9.60;;;6.82;;
16824;SDS011;8529;48.108;-1.706;2024-03-08T00:47:09;14.05;;;6.85;;
16824;SDS011;8529;48.108;-1.706;2024-03-08T00:49:38;11.18;;;6.75;;
16824;SDS011;8529;48.108;-1.706;2024-03-08T00:52:08;8.68;;;5.57;;
16824;SDS011;8529;48.108;-1.706;2024-03-08T00:54:35;10.15;;;6.50;;
16824;SDS011;8529;48.108;-1.706;2024-03-08T00:57:02;9.25;;;6.03;;
16824;SDS011;8529;48.108;-1.706;2024-03-08T00:59:31;12.85;;;6.28;;
16824;SDS011;8529;48.108;-1.706;2024-03-08T01:01:58;12.15;;;6.43;;
16824;SDS011;8529;48.108;-1.706;2024-03-08T01:04:26;11.32;;;5.80;;
16824;SDS011;8529;48.108;-1.706;2024-03-08T01:06:56;9.82;;;6.05;;
16824;SDS011;8529;48.108;-1.706;2024-03-08T01:09:23;10.73;;;6.32;;
16824;SDS011;8529;48.108;-1.706;2024-03-08T01:11:51;10.05;;;6.22;;
16824;SDS011;8529;48.108;-1.706;2024-03-08T01:14:19;12.45;;;7.22;;
16824;SDS011;8529;48.108;-1.706;2024-03-08T01:16:47;10.85;;;6.43;;
16824;SDS011;8529;48.108;-1.706;2024-03-08T01:19:14;12.75;;;7.50;;
16824;SDS011;8529;48.108;-1.706;2024-03-08T01:21:42;12.27;;;7.05;;
16824;SDS011;8529;48.108;-1.706;2024-03-08T01:24:11;12.40;;;6.50;;
16824;SDS011;8529;48.108;-1.706;2024-03-08T01:26:38;12.57;;;6.53;;
16824;SDS011;8529;48.108;-1.706;2024-03-08T01:29:05;10.43;;;6.57;;
16824;SDS011;8529;48.108;-1.706;2024-03-08T01:31:33;10.70;;;6.45;;
16824;SDS011;8529;48.108;-1.706;2024-03-08T01:34:01;11.27;;;7.13;;
16824;SDS011;8529;48.108;-1.706;2024-03-08T01:36:28;11.85;;;6.70;;
16824;SDS011;8529;48.108;-1.706;2024-03-08T01:38:56;11.38;;;6.70;;
16824;SDS011;8529;48.108;-1.706;2024-03-08T01:41:24;13.15;;;7.07;;
16824;SDS011;8529;48.108;-1.706;2024-03-08T01:43:54;11.80;;;6.20;;
16824;SDS011;8529;48.108;-1.706;2024-03-08T01:46:21;12.60;;;6.97;;
16824;SDS011;8529;48.108;-1.706;2024-03-08T01:48:49;13.15;;;7.65;;
16824;SDS011;8529;48.108;-1.706;2024-03-08T01:51:17;12.68;;;7.18;;
16824;SDS011;8529;48.108;-1.706;2024-03-08T01:53:44;13.57;;;7.40;;
16824;SDS011;8529;48.108;-1.706;2024-03-08T01:56:13;10.82;;;7.07;;
16824;SDS011;8529;48.108;-1.706;2024-03-08T01:58:42;13.30;;;7.88;;
16824;SDS011;8529;48.108;-1.706;2024-03-08T02:01:09;10.98;;;7.68;;
16824;SDS011;8529;48.108;-1.706;2024-03-08T02:03:37;11.55;;;7.57;;
16824;SDS011;8529;48.108;-1.706;2024-03-08T02:06:04;10.93;;;7.22;;
16824;SDS011;8529;48.108;-1.706;2024-03-08T02:08:35;11.13;;;7.22;;
16824;SDS011;8529;48.108;-1.706;2024-03-08T02:11:02;13.85;;;8.35;;
16824;SDS011;8529;48.108;-1.706;2024-03-08T02:13:30;12.20;;;7.07;;
16824;SDS011;8529;48.108;-1.706;2024-03-08T02:16:00;10.68;;;6.85;;
16824;SDS011;8529;48.108;-1.706;2024-03-08T02:18:28;11.73;;;7.13;;
16824;SDS011;8529;48.108;-1.706;2024-03-08T02:20:57;13.23;;;7.75;;
16824;SDS011;8529;48.108;-1.706;2024-03-08T02:23:25;8.77;;;5.82;;
16824;SDS011;8529;48.108;-1.706;2024-03-08T02:25:52;12.38;;;6.85;;
16824;SDS011;8529;48.108;-1.706;2024-03-08T02:28:19;14.13;;;7.13;;
16824;SDS011;8529;48.108;-1.706;2024-03-08T02:30:47;11.70;;;6.50;;
16824;SDS011;8529;48.108;-1.706;2024-03-08T02:33:14;12.13;;;7.15;;
16824;SDS011;8529;48.108;-1.706;2024-03-08T02:35:42;11.10;;;6.38;;
16824;SDS011;8529;48.108;-1.706;2024-03-08T02:38:12;12.45;;;7.80;;
16824;SDS011;8529;48.108;-1.706;2024-03-08T02:40:41;12.45;;;6.60;;
16824;SDS011;8529;48.108;-1.706;2024-03-08T02:43:08;12.02;;;6.78;;
16824;SDS011;8529;48.108;-1.706;2024-03-08T02:45:35;11.48;;;6.43;;
16824;SDS011;8529;48.108;-1.706;2024-03-08T02:48:03;13.80;;;7.20;;
16824;SDS011;8529;48.108;-1.706;2024-03-08T02:50:31;10.88;;;6.85;;
16824;SDS011;8529;48.108;-1.706;2024-03-08T02:52:59;11.32;;;6.75;;
16824;SDS011;8529;48.108;-1.706;2024-03-08T02:55:28;10.90;;;6.65;;
16824;SDS011;8529;48.108;-1.706;2024-03-08T02:57:55;11.13;;;6.40;;
16824;SDS011;8529;48.108;-1.706;2024-03-08T03:00:24;11.45;;;6.40;;
16824;SDS011;8529;48.108;-1.706;2024-03-08T03:02:51;12.55;;;6.70;;
16824;SDS011;8529;48.108;-1.706;2024-03-08T03:05:19;10.70;;;6.55;;
16824;SDS011;8529;48.108;-1.706;2024-03-08T03:07:46;11.75;;;6.72;;
16824;SDS011;8529;48.108;-1.706;2024-03-08T03:10:14;10.75;;;6.50;;
16824;SDS011;8529;48.108;-1.706;2024-03-08T03:12:44;14.43;;;7.53;;
16824;SDS011;8529;48.108;-1.706;2024-03-08T03:15:13;13.40;;;7.20;;
16824;SDS011;8529;48.108;-1.706;2024-03-08T03:17:45;9.82;;;5.95;;
16824;SDS011;8529;48.108;-1.706;2024-03-08T03:20:12;10.55;;;6.20;;
16824;SDS011;8529;48.108;-1.706;2024-03-08T03:22:39;9.30;;;5.93;;
16824;SDS011;8529;48.108;-1.706;2024-03-08T03:25:12;11.63;;;6.75;;
16824;SDS011;8529;48.108;-1.706;2024-03-08T03:27:39;11.38;;;6.28;;
16824;SDS011;8529;48.108;-1.706;2024-03-08T03:30:09;10.73;;;6.25;;
16824;SDS011;8529;48.108;-1.706;2024-03-08T03:32:48;12.07;;;7.43;;
16824;SDS011;8529;48.108;-1.706;2024-03-08T03:35:16;9.77;;;6.60;;
16824;SDS011;8529;48.108;-1.706;2024-03-08T03:37:43;9.90;;;6.07;;
16824;SDS011;8529;48.108;-1.706;2024-03-08T03:40:26;9.13;;;6.18;;
16824;SDS011;8529;48.108;-1.706;2024-03-08T03:42:53;11.13;;;6.32;;
16824;SDS011;8529;48.108;-1.706;2024-03-08T03:45:22;13.40;;;7.10;;
16824;SDS011;8529;48.108;-1.706;2024-03-08T03:47:49;10.35;;;6.20;;
16824;SDS011;8529;48.108;-1.706;2024-03-08T03:50:16;12.43;;;7.03;;
16824;SDS011;8529;48.108;-1.706;2024-03-08T03:52:44;11.35;;;7.10;;
16824;SDS011;8529;48.108;-1.706;2024-03-08T03:55:11;10.73;;;6.13;;
16824;SDS011;8529;48.108;-1.706;2024-03-08T03:57:38;10.65;;;6.60;;
16824;SDS011;8529;48.108;-1.706;2024-03-08T04:00:06;8.65;;;5.65;;
16824;SDS011;8529;48.108;-1.706;2024-03-08T04:02:36;11.02;;;5.68;;
16824;SDS011;8529;48.108;-1.706;2024-03-08T04:05:04;11.10;;;6.90;;
16824;SDS011;8529;48.108;-1.706;2024-03-08T04:07:34;12.68;;;6.78;;
16824;SDS011;8529;48.108;-1.706;2024-03-08T04:10:01;10.82;;;6.18;;
16824;SDS011;8529;48.108;-1.706;2024-03-08T04:12:28;10.90;;;6.63;;
16824;SDS011;8529;48.108;-1.706;2024-03-08T04:14:55;10.40;;;6.45;;
16824;SDS011;8529;48.108;-1.706;2024-03-08T04:17:22;10.90;;;6.60;;
16824;SDS011;8529;48.108;-1.706;2024-03-08T04:19:51;12.90;;;6.90;;
16824;SDS011;8529;48.108;-1.706;2024-03-08T04:22:19;10.77;;;6.32;;
16824;SDS011;8529;48.108;-1.706;2024-03-08T04:24:46;12.90;;;7.10;;
16824;SDS011;8529;48.108;-1.706;2024-03-08T04:27:13;11.90;;;6.53;;
16824;SDS011;8529;48.108;-1.706;2024-03-08T04:29:40;11.00;;;6.60;;
16824;SDS011;8529;48.108;-1.706;2024-03-08T04:32:09;11.25;;;7.03;;
16824;SDS011;8529;48.108;-1.706;2024-03-08T04:34:38;11.43;;;6.93;;
16824;SDS011;8529;48.108;-1.706;2024-03-08T04:37:06;13.68;;;6.72;;
16824;SDS011;8529;48.108;-1.706;2024-03-08T04:39:36;11.43;;;6.60;;
16824;SDS011;8529;48.108;-1.706;2024-03-08T04:42:03;11.55;;;6.60;;
16824;SDS011;8529;48.108;-1.706;2024-03-08T04:44:31;10.85;;;6.60;;
16824;SDS011;8529;48.108;-1.706;2024-03-08T04:46:59;9.40;;;6.03;;
16824;SDS011;8529;48.108;-1.706;2024-03-08T04:49:26;13.18;;;7.57;;
16824;SDS011;8529;48.108;-1.706;2024-03-08T04:51:54;10.98;;;6.82;;
16824;SDS011;8529;48.108;-1.706;2024-03-08T04:54:22;10.98;;;7.30;;
16824;SDS011;8529;48.108;-1.706;2024-03-08T04:56:49;11.85;;;7.20;;
16824;SDS011;8529;48.108;-1.706;2024-03-08T04:59:16;12.75;;;7.03;;
16824;SDS011;8529;48.108;-1.706;2024-03-08T05:01:44;11.75;;;6.53;;
16824;SDS011;8529;48.108;-1.706;2024-03-08T05:04:12;11.73;;;6.70;;
16824;SDS011;8529;48.108;-1.706;2024-03-08T05:06:40;18.83;;;7.05;;
16824;SDS011;8529;48.108;-1.706;2024-03-08T05:09:07;13.45;;;7.15;;
16824;SDS011;8529;48.108;-1.706;2024-03-08T05:11:42;10.23;;;6.13;;
16824;SDS011;8529;48.108;-1.706;2024-03-08T05:14:09;11.02;;;6.93;;
16824;SDS011;8529;48.108;-1.706;2024-03-08T05:16:37;14.98;;;8.10;;
16824;SDS011;8529;48.108;-1.706;2024-03-08T05:19:05;15.65;;;7.50;;
16824;SDS011;8529;48.108;-1.706;2024-03-08T05:21:32;14.77;;;7.80;;
16824;SDS011;8529;48.108;-1.706;2024-03-08T05:23:59;11.80;;;7.38;;
16824;SDS011;8529;48.108;-1.706;2024-03-08T05:26:26;11.00;;;6.95;;
16824;SDS011;8529;48.108;-1.706;2024-03-08T05:28:56;12.63;;;7.65;;
16824;SDS011;8529;48.108;-1.706;2024-03-08T05:31:23;12.75;;;7.57;;
16824;SDS011;8529;48.108;-1.706;2024-03-08T05:33:50;13.93;;;7.72;;
16824;SDS011;8529;48.108;-1.706;2024-03-08T05:36:19;12.77;;;7.35;;
16824;SDS011;8529;48.108;-1.706;2024-03-08T05:38:46;12.68;;;7.43;;
16824;SDS011;8529;48.108;-1.706;2024-03-08T05:41:15;13.55;;;7.05;;
16824;SDS011;8529;48.108;-1.706;2024-03-08T05:43:42;13.73;;;7.68;;
16824;SDS011;8529;48.108;-1.706;2024-03-08T05:46:11;13.00;;;7.43;;
16824;SDS011;8529;48.108;-1.706;2024-03-08T05:48:43;13.93;;;7.53;;
16824;SDS011;8529;48.108;-1.706;2024-03-08T05:51:10;13.55;;;7.88;;
16824;SDS011;8529;48.108;-1.706;2024-03-08T05:53:38;13.43;;;7.75;;
16824;SDS011;8529;48.108;-1.706;2024-03-08T05:56:05;13.52;;;7.30;;
16824;SDS011;8529;48.108;-1.706;2024-03-08T05:58:34;15.88;;;7.57;;
16824;SDS011;8529;48.108;-1.706;2024-03-08T06:01:01;14.13;;;7.75;;
16824;SDS011;8529;48.108;-1.706;2024-03-08T06:03:34;12.98;;;7.65;;
16824;SDS011;8529;48.108;-1.706;2024-03-08T06:06:01;14.38;;;8.20;;
16824;SDS011;8529;48.108;-1.706;2024-03-08T06:08:28;14.32;;;8.77;;
16824;SDS011;8529;48.108;-1.706;2024-03-08T06:10:55;14.57;;;8.45;;
16824;SDS011;8529;48.108;-1.706;2024-03-08T06:13:24;14.13;;;7.93;;
16824;SDS011;8529;48.108;-1.706;2024-03-08T06:15:51;14.05;;;8.07;;
16824;SDS011;8529;48.108;-1.706;2024-03-08T06:18:18;14.98;;;8.13;;
16824;SDS011;8529;48.108;-1.706;2024-03-08T06:20:47;13.05;;;7.78;;
16824;SDS011;8529;48.108;-1.706;2024-03-08T06:23:14;14.77;;;8.18;;
16824;SDS011;8529;48.108;-1.706;2024-03-08T06:25:42;14.85;;;8.00;;
16824;SDS011;8529;48.108;-1.706;2024-03-08T06:28:10;12.25;;;7.78;;
16824;SDS011;8529;48.108;-1.706;2024-03-08T06:30:37;12.60;;;7.68;;
16824;SDS011;8529;48.108;-1.706;2024-03-08T06:33:04;15.15;;;8.52;;
16824;SDS011;8529;48.108;-1.706;2024-03-08T06:35:32;13.27;;;7.85;;
16824;SDS011;8529;48.108;-1.706;2024-03-08T06:38:04;14.80;;;8.68;;
16824;SDS011;8529;48.108;-1.706;2024-03-08T06:40:31;17.77;;;8.77;;
16824;SDS011;8529;48.108;-1.706;2024-03-08T06:42:58;17.63;;;8.70;;
16824;SDS011;8529;48.108;-1.706;2024-03-08T06:45:25;15.48;;;8.07;;
16824;SDS011;8529;48.108;-1.706;2024-03-08T06:47:53;15.68;;;8.52;;
16824;SDS011;8529;48.108;-1.706;2024-03-08T06:50:21;15.25;;;8.45;;
16824;SDS011;8529;48.108;-1.706;2024-03-08T06:52:48;20.00;;;10.73;;
16824;SDS011;8529;48.108;-1.706;2024-03-08T06:55:20;14.57;;;8.65;;
16824;SDS011;8529;48.108;-1.706;2024-03-08T06:57:47;15.73;;;9.52;;
16824;SDS011;8529;48.108;-1.706;2024-03-08T07:00:14;13.55;;;8.93;;
16824;SDS011;8529;48.108;-1.706;2024-03-08T07:02:43;18.42;;;9.60;;
16824;SDS011;8529;48.108;-1.706;2024-03-08T07:05:11;16.80;;;9.13;;
16824;SDS011;8529;48.108;-1.706;2024-03-08T07:07:38;15.98;;;8.80;;
16824;SDS011;8529;48.108;-1.706;2024-03-08T07:10:06;16.42;;;9.50;;
16824;SDS011;8529;48.108;-1.706;2024-03-08T07:12:37;18.42;;;9.68;;
16824;SDS011;8529;48.108;-1.706;2024-03-08T07:15:04;15.30;;;8.57;;
16824;SDS011;8529;48.108;-1.706;2024-03-08T07:17:32;17.05;;;9.45;;
16824;SDS011;8529;48.108;-1.706;2024-03-08T07:20:00;16.05;;;8.93;;
16824;SDS011;8529;48.108;-1.706;2024-03-08T07:22:33;21.00;;;11.18;;
16824;SDS011;8529;48.108;-1.706;2024-03-08T07:25:02;17.05;;;9.68;;
16824;SDS011;8529;48.108;-1.706;2024-03-08T07:27:46;15.40;;;8.45;;
16824;SDS011;8529;48.108;-1.706;2024-03-08T07:30:13;19.38;;;10.57;;
16824;SDS011;8529;48.108;-1.706;2024-03-08T07:33:01;19.50;;;9.57;;
16824;SDS011;8529;48.108;-1.706;2024-03-08T07:35:28;18.45;;;9.38;;
16824;SDS011;8529;48.108;-1.706;2024-03-08T07:37:56;17.80;;;9.57;;
16824;SDS011;8529;48.108;-1.706;2024-03-08T07:40:25;16.83;;;9.02;;
16824;SDS011;8529;48.108;-1.706;2024-03-08T07:42:53;18.38;;;9.32;;
16824;SDS011;8529;48.108;-1.706;2024-03-08T07:45:20;16.30;;;9.38;;
16824;SDS011;8529;48.108;-1.706;2024-03-08T07:47:48;16.98;;;9.50;;
16824;SDS011;8529;48.108;-1.706;2024-03-08T07:50:15;15.93;;;8.98;;
16824;SDS011;8529;48.108;-1.706;2024-03-08T07:52:44;16.40;;;9.00;;
16824;SDS011;8529;48.108;-1.706;2024-03-08T07:55:11;16.63;;;8.55;;
16824;SDS011;8529;48.108;-1.706;2024-03-08T07:57:40;17.58;;;9.23;;
16824;SDS011;8529;48.108;-1.706;2024-03-08T08:00:09;18.07;;;8.83;;
16824;SDS011;8529;48.108;-1.706;2024-03-08T08:02:42;16.67;;;9.32;;
16824;SDS011;8529;48.108;-1.706;2024-03-08T08:05:10;17.30;;;9.35;;
16824;SDS011;8529;48.108;-1.706;2024-03-08T08:07:38;21.65;;;9.93;;
16824;SDS011;8529;48.108;-1.706;2024-03-08T08:10:08;18.33;;;9.43;;
16824;SDS011;8529;48.108;-1.706;2024-03-08T08:12:41;16.67;;;9.23;;
16824;SDS011;8529;48.108;-1.706;2024-03-08T08:15:10;18.20;;;9.45;;
16824;SDS011;8529;48.108;-1.706;2024-03-08T08:17:38;16.73;;;8.57;;
16824;SDS011;8529;48.108;-1.706;2024-03-08T08:20:05;17.20;;;9.27;;
16824;SDS011;8529;48.108;-1.706;2024-03-08T08:22:33;16.55;;;9.95;;
16824;SDS011;8529;48.108;-1.706;2024-03-08T08:25:00;18.25;;;9.05;;
16824;SDS011;8529;48.108;-1.706;2024-03-08T08:27:28;13.35;;;8.45;;
16824;SDS011;8529;48.108;-1.706;2024-03-08T08:29:55;17.73;;;8.57;;
16824;SDS011;8529;48.108;-1.706;2024-03-08T08:32:23;16.25;;;8.45;;
16824;SDS011;8529;48.108;-1.706;2024-03-08T08:34:51;16.00;;;8.55;;
16824;SDS011;8529;48.108;-1.706;2024-03-08T08:37:18;15.27;;;8.63;;
16824;SDS011;8529;48.108;-1.706;2024-03-08T08:39:45;18.08;;;9.73;;
16824;SDS011;8529;48.108;-1.706;2024-03-08T08:42:13;13.32;;;7.45;;
16824;SDS011;8529;48.108;-1.706;2024-03-08T08:44:40;14.38;;;7.95;;
16824;SDS011;8529;48.108;-1.706;2024-03-08T08:47:07;14.88;;;8.48;;
16824;SDS011;8529;48.108;-1.706;2024-03-08T08:49:35;14.00;;;8.13;;
16824;SDS011;8529;48.108;-1.706;2024-03-08T08:52:03;16.08;;;9.18;;
16824;SDS011;8529;48.108;-1.706;2024-03-08T08:54:30;14.18;;;8.95;;
16824;SDS011;8529;48.108;-1.706;2024-03-08T08:56:57;19.88;;;8.68;;
16824;SDS011;8529;48.108;-1.706;2024-03-08T08:59:24;16.92;;;9.00;;
16824;SDS011;8529;48.108;-1.706;2024-03-08T09:01:52;13.18;;;8.20;;
16824;SDS011;8529;48.108;-1.706;2024-03-08T09:04:19;15.55;;;8.30;;
16824;SDS011;8529;48.108;-1.706;2024-03-08T09:06:49;17.08;;;8.30;;
16824;SDS011;8529;48.108;-1.706;2024-03-08T09:09:16;15.88;;;7.38;;
16824;SDS011;8529;48.108;-1.706;2024-03-08T09:11:43;11.73;;;6.00;;
16824;SDS011;8529;48.108;-1.706;2024-03-08T09:14:11;13.23;;;7.75;;
16824;SDS011;8529;48.108;-1.706;2024-03-08T09:16:39;14.77;;;7.07;;
16824;SDS011;8529;48.108;-1.706;2024-03-08T09:19:06;15.30;;;8.60;;
16824;SDS011;8529;48.108;-1.706;2024-03-08T09:21:32;14.73;;;7.57;;
16824;SDS011;8529;48.108;-1.706;2024-03-08T09:24:03;14.15;;;7.80;;
16824;SDS011;8529;48.108;-1.706;2024-03-08T09:26:31;14.82;;;8.38;;
16824;SDS011;8529;48.108;-1.706;2024-03-08T09:28:58;13.20;;;7.45;;
16824;SDS011;8529;48.108;-1.706;2024-03-08T09:31:25;10.25;;;6.80;;
16824;SDS011;8529;48.108;-1.706;2024-03-08T09:33:52;15.98;;;7.68;;
16824;SDS011;8529;48.108;-1.706;2024-03-08T09:36:19;14.57;;;7.82;;
16824;SDS011;8529;48.108;-1.706;2024-03-08T09:38:46;16.10;;;7.25;;
16824;SDS011;8529;48.108;-1.706;2024-03-08T09:41:16;12.70;;;6.75;;
16824;SDS011;8529;48.108;-1.706;2024-03-08T09:43:43;10.85;;;6.57;;
16824;SDS011;8529;48.108;-1.706;2024-03-08T09:46:12;15.88;;;7.82;;
16824;SDS011;8529;48.108;-1.706;2024-03-08T09:48:41;12.55;;;6.72;;
16824;SDS011;8529;48.108;-1.706;2024-03-08T09:51:08;9.98;;;6.10;;
16824;SDS011;8529;48.108;-1.706;2024-03-08T09:53:39;12.63;;;6.88;;
16824;SDS011;8529;48.108;-1.706;2024-03-08T09:56:07;12.05;;;7.32;;
16824;SDS011;8529;48.108;-1.706;2024-03-08T09:58:35;23.10;;;10.38;;
16824;SDS011;8529;48.108;-1.706;2024-03-08T10:01:17;14.45;;;7.30;;
16824;SDS011;8529;48.108;-1.706;2024-03-08T10:03:44;14.55;;;6.90;;
16824;SDS011;8529;48.108;-1.706;2024-03-08T10:06:14;15.90;;;9.85;;
16824;SDS011;8529;48.108;-1.706;2024-03-08T10:08:41;10.75;;;6.47;;
16824;SDS011;8529;48.108;-1.706;2024-03-08T10:11:08;16.02;;;8.25;;
16824;SDS011;8529;48.108;-1.706;2024-03-08T10:13:38;14.85;;;9.48;;
16824;SDS011;8529;48.108;-1.706;2024-03-08T10:16:06;14.55;;;8.13;;
16824;SDS011;8529;48.108;-1.706;2024-03-08T10:18:33;16.15;;;7.72;;
16824;SDS011;8529;48.108;-1.706;2024-03-08T10:21:04;14.50;;;7.72;;
16824;SDS011;8529;48.108;-1.706;2024-03-08T10:23:32;13.35;;;7.28;;
16824;SDS011;8529;48.108;-1.706;2024-03-08T10:26:09;13.15;;;7.45;;
16824;SDS011;8529;48.108;-1.706;2024-03-08T10:28:41;14.50;;;7.82;;
16824;SDS011;8529;48.108;-1.706;2024-03-08T10:31:08;11.85;;;6.80;;
16824;SDS011;8529;48.108;-1.706;2024-03-08T10:33:35;12.63;;;7.20;;
16824;SDS011;8529;48.108;-1.706;2024-03-08T10:36:05;11.77;;;7.07;;
16824;SDS011;8529;48.108;-1.706;2024-03-08T10:38:33;17.15;;;8.43;;
16824;SDS011;8529;48.108;-1.706;2024-03-08T10:41:03;11.02;;;6.55;;
16824;SDS011;8529;48.108;-1.706;2024-03-08T10:43:32;12.98;;;7.60;;
16824;SDS011;8529;48.108;-1.706;2024-03-08T10:46:06;10.52;;;6.53;;
16824;SDS011;8529;48.108;-1.706;2024-03-08T10:48:39;10.15;;;5.63;;
16824;SDS011;8529;48.108;-1.706;2024-03-08T10:51:09;12.70;;;6.68;;
16824;SDS011;8529;48.108;-1.706;2024-03-08T10:53:38;40.42;;;14.27;;
16824;SDS011;8529;48.108;-1.706;2024-03-08T10:56:06;20.30;;;9.52;;
16824;SDS011;8529;48.108;-1.706;2024-03-08T10:58:35;9.27;;;6.32;;
16824;SDS011;8529;48.108;-1.706;2024-03-08T11:01:04;27.58;;;11.52;;
16824;SDS011;8529;48.108;-1.706;2024-03-08T11:06:18;12.23;;;6.40;;
16824;SDS011;8529;48.108;-1.706;2024-03-08T11:08:48;9.30;;;5.95;;
16824;SDS011;8529;48.108;-1.706;2024-03-08T11:11:25;11.52;;;5.90;;
16824;SDS011;8529;48.108;-1.706;2024-03-08T11:13:59;12.77;;;7.15;;
16824;SDS011;8529;48.108;-1.706;2024-03-08T11:16:38;11.57;;;6.00;;
16824;SDS011;8529;48.108;-1.706;2024-03-08T11:19:24;9.65;;;5.72;;
16824;SDS011;8529;48.108;-1.706;2024-03-08T11:22:00;9.88;;;5.38;;
16824;SDS011;8529;48.108;-1.706;2024-03-08T11:24:33;8.80;;;5.63;;
16824;SDS011;8529;48.108;-1.706;2024-03-08T11:27:04;7.53;;;4.97;;
16824;SDS011;8529;48.108;-1.706;2024-03-08T11:29:32;10.98;;;5.40;;
16824;SDS011;8529;48.108;-1.706;2024-03-08T11:32:05;10.25;;;5.72;;
16824;SDS011;8529;48.108;-1.706;2024-03-08T11:34:32;11.57;;;5.63;;
16824;SDS011;8529;48.108;-1.706;2024-03-08T11:36:59;8.45;;;5.20;;
16824;SDS011;8529;48.108;-1.706;2024-03-08T11:39:26;8.50;;;5.82;;
16824;SDS011;8529;48.108;-1.706;2024-03-08T11:41:53;8.98;;;5.97;;
16824;SDS011;8529;48.108;-1.706;2024-03-08T11:44:21;10.15;;;5.90;;
16824;SDS011;8529;48.108;-1.706;2024-03-08T11:46:48;9.80;;;6.20;;
16824;SDS011;8529;48.108;-1.706;2024-03-08T11:49:17;11.52;;;6.70;;
16824;SDS011;8529;48.108;-1.706;2024-03-08T11:51:44;14.07;;;6.93;;
16824;SDS011;8529;48.108;-1.706;2024-03-08T11:54:11;10.00;;;5.93;;
16824;SDS011;8529;48.108;-1.706;2024-03-08T11:56:40;10.43;;;6.53;;
16824;SDS011;8529;48.108;-1.706;2024-03-08T11:59:10;11.10;;;5.78;;
16824;SDS011;8529;48.108;-1.706;2024-03-08T12:01:38;8.43;;;5.38;;
16824;SDS011;8529;48.108;-1.706;2024-03-08T12:04:05;7.68;;;5.50;;
16824;SDS011;8529;48.108;-1.706;2024-03-08T12:06:38;8.38;;;5.22;;
16824;SDS011;8529;48.108;-1.706;2024-03-08T12:09:07;8.40;;;5.25;;
16824;SDS011;8529;48.108;-1.706;2024-03-08T12:11:35;7.15;;;4.50;;
16824;SDS011;8529;48.108;-1.706;2024-03-08T12:14:03;8.25;;;5.05;;
16824;SDS011;8529;48.108;-1.706;2024-03-08T12:16:31;12.95;;;8.23;;
16824;SDS011;8529;48.108;-1.706;2024-03-08T12:18:59;7.28;;;4.32;;
16824;SDS011;8529;48.108;-1.706;2024-03-08T12:21:31;10.32;;;5.88;;
16824;SDS011;8529;48.108;-1.706;2024-03-08T12:24:04;7.47;;;4.90;;
16824;SDS011;8529;48.108;-1.706;2024-03-08T12:26:34;12.55;;;5.68;;
16824;SDS011;8529;48.108;-1.706;2024-03-08T12:29:14;9.48;;;5.05;;
16824;SDS011;8529;48.108;-1.706;2024-03-08T12:31:42;9.15;;;5.25;;
16824;SDS011;8529;48.108;-1.706;2024-03-08T12:34:10;12.90;;;5.60;;
16824;SDS011;8529;48.108;-1.706;2024-03-08T12:36:39;8.13;;;4.95;;
16824;SDS011;8529;48.108;-1.706;2024-03-08T12:39:14;8.73;;;5.25;;
16824;SDS011;8529;48.108;-1.706;2024-03-08T12:41:42;10.25;;;5.78;;
16824;SDS011;8529;48.108;-1.706;2024-03-08T12:44:12;9.20;;;6.03;;
16824;SDS011;8529;48.108;-1.706;2024-03-08T12:46:39;10.50;;;6.05;;
16824;SDS011;8529;48.108;-1.706;2024-03-08T12:49:07;9.65;;;5.57;;
16824;SDS011;8529;48.108;-1.706;2024-03-08T12:51:35;8.55;;;5.35;;
16824;SDS011;8529;48.108;-1.706;2024-03-08T12:54:04;8.23;;;4.85;;
16824;SDS011;8529;48.108;-1.706;2024-03-08T12:56:34;8.23;;;4.65;;
16824;SDS011;8529;48.108;-1.706;2024-03-08T12:59:02;8.05;;;5.18;;
16824;SDS011;8529;48.108;-1.706;2024-03-08T13:01:30;10.52;;;6.03;;
16824;SDS011;8529;48.108;-1.706;2024-03-08T13:03:58;11.20;;;5.93;;
16824;SDS011;8529;48.108;-1.706;2024-03-08T13:06:25;9.07;;;5.32;;
16824;SDS011;8529;48.108;-1.706;2024-03-08T13:08:53;11.98;;;4.82;;
16824;SDS011;8529;48.108;-1.706;2024-03-08T13:11:21;7.93;;;5.20;;
16824;SDS011;8529;48.108;-1.706;2024-03-08T13:13:51;8.68;;;4.85;;
16824;SDS011;8529;48.108;-1.706;2024-03-08T13:16:18;8.93;;;5.03;;
16824;SDS011;8529;48.108;-1.706;2024-03-08T13:18:46;8.85;;;5.88;;
16824;SDS011;8529;48.108;-1.706;2024-03-08T13:21:14;9.05;;;5.07;;
16824;SDS011;8529;48.108;-1.706;2024-03-08T13:23:45;10.45;;;5.85;;
16824;SDS011;8529;48.108;-1.706;2024-03-08T13:26:14;8.63;;;5.38;;
16824;SDS011;8529;48.108;-1.706;2024-03-08T13:28:42;9.77;;;4.82;;
16824;SDS011;8529;48.108;-1.706;2024-03-08T13:31:10;7.35;;;5.45;;
16824;SDS011;8529;48.108;-1.706;2024-03-08T13:33:39;7.72;;;4.88;;
16824;SDS011;8529;48.108;-1.706;2024-03-08T13:36:07;8.48;;;4.70;;
16824;SDS011;8529;48.108;-1.706;2024-03-08T13:38:40;7.57;;;4.70;;
16824;SDS011;8529;48.108;-1.706;2024-03-08T13:41:08;7.85;;;4.43;;
16824;SDS011;8529;48.108;-1.706;2024-03-08T13:43:36;9.73;;;4.28;;
16824;SDS011;8529;48.108;-1.706;2024-03-08T13:46:03;6.90;;;4.03;;
16824;SDS011;8529;48.108;-1.706;2024-03-08T13:48:33;6.85;;;4.43;;
16824;SDS011;8529;48.108;-1.706;2024-03-08T13:51:00;9.38;;;4.57;;
16824;SDS011;8529;48.108;-1.706;2024-03-08T13:53:27;6.80;;;4.30;;
16824;SDS011;8529;48.108;-1.706;2024-03-08T13:55:54;8.68;;;4.25;;
16824;SDS011;8529;48.108;-1.706;2024-03-08T13:58:22;6.00;;;3.88;;
16824;SDS011;8529;48.108;-1.706;2024-03-08T14:00:49;8.52;;;4.35;;
16824;SDS011;8529;48.108;-1.706;2024-03-08T14:03:16;9.88;;;4.53;;
16824;SDS011;8529;48.108;-1.706;2024-03-08T14:05:45;7.32;;;4.43;;
16824;SDS011;8529;48.108;-1.706;2024-03-08T14:08:12;8.15;;;4.65;;
16824;SDS011;8529;48.108;-1.706;2024-03-08T14:10:39;8.25;;;4.13;;
16824;SDS011;8529;48.108;-1.706;2024-03-08T14:13:07;8.27;;;4.90;;
16824;SDS011;8529;48.108;-1.706;2024-03-08T14:15:34;6.25;;;4.40;;
16824;SDS011;8529;48.108;-1.706;2024-03-08T14:18:02;6.38;;;4.82;;
16824;SDS011;8529;48.108;-1.706;2024-03-08T14:20:31;8.38;;;5.05;;
16824;SDS011;8529;48.108;-1.706;2024-03-08T14:23:00;10.25;;;6.10;;
16824;SDS011;8529;48.108;-1.706;2024-03-08T14:25:28;8.63;;;4.70;;
16824;SDS011;8529;48.108;-1.706;2024-03-08T14:27:55;8.70;;;5.80;;
16824;SDS011;8529;48.108;-1.706;2024-03-08T14:30:27;9.60;;;5.57;;
16824;SDS011;8529;48.108;-1.706;2024-03-08T14:33:03;7.15;;;4.88;;
16824;SDS011;8529;48.108;-1.706;2024-03-08T14:35:30;7.30;;;6.00;;
16824;SDS011;8529;48.108;-1.706;2024-03-08T14:37:57;8.20;;;5.43;;
16824;SDS011;8529;48.108;-1.706;2024-03-08T14:40:26;8.27;;;5.15;;
16824;SDS011;8529;48.108;-1.706;2024-03-08T14:42:55;7.70;;;5.38;;
16824;SDS011;8529;48.108;-1.706;2024-03-08T14:45:22;7.43;;;4.93;;
16824;SDS011;8529;48.108;-1.706;2024-03-08T14:47:51;9.05;;;4.72;;